Time;durP1;ratioP1;P1;durP2;ratioP2;P2;SDS_P1;SDS_P2;PMS_P1;PMS_P2;Temp;Humidity;BMP_temperature;BMP_pressure;BME280_temperature;BME280_humidity;BME280_pressure;Samples;Min_cycle;Max_cycle;Signal;HPM_P1;HPM_P2
2023/06/12 00:00:05;;;;;;;8.17;5.13;;;;;19.50;96765.00;;;;4996270;28;20590;-76
2023/06/12 00:02:57;;;;;;;5.73;5.00;;;;;19.60;96755.00;;;;5005858;28;20209;-76
2023/06/12 00:05:47;;;;;;;5.27;4.50;;;;;19.60;96753.00;;;;5009243;28;20201;-76
2023/06/12 00:08:41;;;;;;;7.77;5.20;;;;;19.60;96751.00;;;;4995136;28;20726;-76
2023/06/12 00:11:30;;;;;;;9.10;4.97;;;;;19.60;96755.00;;;;5006840;28;20202;-76
2023/06/12 00:14:19;;;;;;;7.77;4.80;;;;;19.60;96746.00;;;;5004958;28;20758;-76
2023/06/12 00:17:08;;;;;;;5.87;5.27;;;;;19.30;96752.00;;;;5004055;28;20206;-76
2023/06/12 00:19:57;;;;;;;5.77;4.83;;;;;19.20;96744.00;;;;4999928;28;20730;-76
2023/06/12 00:22:46;;;;;;;6.47;5.57;;;;;19.10;96742.00;;;;5010021;28;20220;-76
2023/06/12 00:25:38;;;;;;;6.17;5.33;;;;;18.90;96745.00;;;;5003337;28;20209;-76
2023/06/12 00:28:27;;;;;;;6.27;5.53;;;;;18.90;96754.00;;;;4996399;28;20238;-75
2023/06/12 00:31:16;;;;;;;6.70;5.25;;;;;18.70;96739.00;;;;4999336;28;20206;-75
2023/06/12 00:34:05;;;;;;;6.07;5.57;;;;;18.70;96748.00;;;;5014600;28;20232;-75
2023/06/12 00:36:55;;;;;;;6.03;5.43;;;;;18.70;96734.00;;;;4996835;28;20261;-75
2023/06/12 00:39:44;;;;;;;7.90;4.90;;;;;18.90;96745.00;;;;5013143;28;20233;-75
2023/06/12 00:42:38;;;;;;;8.67;4.87;;;;;19.00;96742.00;;;;4993540;28;20218;-75
2023/06/12 00:45:27;;;;;;;4.70;4.30;;;;;19.10;96743.00;;;;5017231;28;20210;-75
2023/06/12 00:48:16;;;;;;;5.17;4.70;;;;;18.80;96736.00;;;;5002547;28;20218;-75
2023/06/12 00:51:08;;;;;;;6.10;5.50;;;;;18.70;96740.00;;;;5002642;28;20207;-75
2023/06/12 00:53:57;;;;;;;6.53;5.50;;;;;18.90;96732.00;;;;5008768;28;20209;-75
2023/06/12 00:56:46;;;;;;;5.13;4.63;;;;;19.10;96731.00;;;;4998597;28;20284;-75
2023/06/12 00:59:37;;;;;;;5.90;5.35;;;;;19.10;96731.00;;;;5003405;28;20229;-75
2023/06/12 01:02:26;;;;;;;5.77;5.23;;;;;19.20;96729.00;;;;5003554;28;20658;-75
2023/06/12 01:05:17;;;;;;;6.47;5.80;;;;;19.20;96734.00;;;;4998282;28;20257;-76
2023/06/12 01:08:22;;;;;;;6.27;5.07;;;;;19.00;96729.00;;;;5006348;28;20225;-75
2023/06/12 01:11:13;;;;;;;7.73;5.50;;;;;18.60;96730.00;;;;5001902;28;20663;-74
2023/06/12 01:14:02;;;;;;;5.83;5.23;;;;;18.30;96729.00;;;;5000460;28;20237;-74
2023/06/12 01:16:52;;;;;;;8.37;5.10;;;;;17.80;96721.00;;;;4993204;28;20195;-74
2023/06/12 01:19:42;;;;;;;8.50;5.60;;;;;18.00;96716.00;;;;5011967;28;20257;-76
2023/06/12 01:22:36;;;;;;;6.83;6.20;;;;;17.80;96725.00;;;;5012182;28;20750;-74
2023/06/12 01:26:03;;;;;;;6.00;5.27;;;;;18.30;96731.00;;;;4998233;28;20206;-75
2023/06/12 01:29:34;;;;;;;7.93;5.40;;;;;18.30;96736.00;;;;5001724;28;20281;-77
2023/06/12 01:32:26;;;;;;;5.80;5.23;;;;;18.30;96726.00;;;;5013000;28;20216;-74
2023/06/12 01:35:22;;;;;;;6.27;5.13;;;;;18.70;96732.00;;;;5000639;28;20206;-75
2023/06/12 01:38:17;;;;;;;6.70;6.03;;;;;19.00;96719.00;;;;5004558;28;20230;-75
2023/06/12 01:41:07;;;;;;;8.40;5.27;;;;;19.00;96717.00;;;;5004618;28;20207;-75
2023/06/12 01:43:56;;;;;;;6.17;5.57;;;;;19.10;96719.00;;;;4995603;28;20524;-75
2023/06/12 01:46:45;;;;;;;7.17;5.70;;;;;19.20;96727.00;;;;5016005;28;20702;-75
2023/06/12 01:49:35;;;;;;;7.03;5.57;;;;;19.10;96714.00;;;;5004517;28;20738;-75
2023/06/12 01:52:25;;;;;;;7.20;5.60;;;;;19.10;96712.00;;;;4991124;28;20218;-75
2023/06/12 01:55:14;;;;;;;7.50;5.80;;;;;19.00;96715.00;;;;5004718;28;20259;-76
2023/06/12 01:58:03;;;;;;;8.30;5.60;;;;;19.10;96706.00;;;;5006920;28;20606;-75
2023/06/12 02:00:53;;;;;;;6.20;5.60;;;;;19.10;96717.00;;;;5009197;28;20234;-75
2023/06/12 02:03:45;;;;;;;11.87;7.67;;;;;19.20;96710.00;;;;5007093;28;20205;-75
2023/06/12 02:06:36;;;;;;;7.83;5.80;;;;;19.30;96708.00;;;;4997579;28;20214;-75
2023/06/12 02:09:25;;;;;;;6.73;5.83;;;;;19.20;96711.00;;;;5006986;28;20273;-75
2023/06/12 02:12:15;;;;;;;7.50;5.43;;;;;18.60;96708.00;;;;4995030;28;20213;-75
2023/06/12 02:15:04;;;;;;;6.53;5.80;;;;;18.90;96713.00;;;;5004512;28;20206;-76
2023/06/12 02:17:53;;;;;;;7.80;5.63;;;;;18.80;96712.00;;;;5009570;28;20240;-75
2023/06/12 02:20:43;;;;;;;6.03;4.90;;;;;19.00;96709.00;;;;5007126;28;20311;-75
2023/06/12 02:23:33;;;;;;;5.63;5.13;;;;;18.80;96718.00;;;;5005209;28;20210;-75
2023/06/12 02:26:22;;;;;;;7.70;5.27;;;;;18.60;96714.00;;;;5004632;28;20295;-76
2023/06/12 02:29:13;;;;;;;12.80;6.60;;;;;18.30;96713.00;;;;5003310;28;20760;-75
2023/06/12 02:32:02;;;;;;;8.27;5.40;;;;;18.00;96716.00;;;;5002928;28;20217;-76
2023/06/12 02:34:52;;;;;;;6.23;5.57;;;;;18.10;96719.00;;;;5003097;28;20229;-76
2023/06/12 02:37:41;;;;;;;6.33;5.73;;;;;18.20;96717.00;;;;5008923;28;20332;-77
2023/06/12 02:40:31;;;;;;;7.83;6.13;;;;;18.30;96720.00;;;;5003837;28;20268;-76
2023/06/12 02:43:21;;;;;;;7.37;5.90;;;;;18.30;96717.00;;;;5007609;28;20742;-76
2023/06/12 02:46:10;;;;;;;11.70;5.57;;;;;18.50;96717.00;;;;5008034;28;20206;-77
2023/06/12 02:48:59;;;;;;;7.47;6.20;;;;;18.60;96727.00;;;;5008046;28;20689;-77
2023/06/12 02:51:48;;;;;;;6.67;6.07;;;;;18.60;96720.00;;;;5002673;28;20198;-77
2023/06/12 02:54:37;;;;;;;6.97;5.63;;;;;18.40;96716.00;;;;5006419;28;20213;-77
2023/06/12 02:57:28;;;;;;;6.57;5.97;;;;;18.30;96714.00;;;;5003706;28;20256;-77
2023/06/12 03:00:17;;;;;;;7.63;6.83;;;;;18.10;96724.00;;;;5009335;28;20309;-77
2023/06/12 03:03:07;;;;;;;6.43;5.70;;;;;18.00;96727.00;;;;5008511;28;20675;-77
2023/06/12 03:05:56;;;;;;;6.50;5.67;;;;;18.30;96719.00;;;;5004283;28;20213;-76
2023/06/12 03:08:45;;;;;;;7.73;5.87;;;;;18.30;96721.00;;;;5010809;28;20221;-76
2023/06/12 03:11:34;;;;;;;10.13;6.40;;;;;18.10;96723.00;;;;5009399;28;20202;-77
2023/06/12 03:14:26;;;;;;;7.50;6.07;;;;;18.20;96720.00;;;;5011473;28;20303;-77
2023/06/12 03:17:15;;;;;;;7.30;6.07;;;;;18.10;96725.00;;;;5009333;28;20205;-77
2023/06/12 03:20:06;;;;;;;7.83;5.97;;;;;18.00;96719.00;;;;4990719;28;20288;-77
2023/06/12 03:22:55;;;;;;;8.17;6.50;;;;;18.00;96712.00;;;;4984553;28;20692;-77
2023/06/12 03:25:44;;;;;;;9.50;6.60;;;;;17.90;96724.00;;;;4988607;28;20583;-77
2023/06/12 03:28:34;;;;;;;9.17;5.77;;;;;17.50;96718.00;;;;4989014;28;20699;-77
2023/06/12 03:31:26;;;;;;;9.17;6.83;;;;;17.40;96718.00;;;;4989943;28;20627;-76
2023/06/12 03:34:16;;;;;;;7.77;6.90;;;;;17.00;96726.00;;;;4979850;28;20211;-76
2023/06/12 03:37:06;;;;;;;6.57;5.93;;;;;16.90;96719.00;;;;4991404;28;20206;-75
2023/06/12 03:39:55;;;;;;;9.30;6.77;;;;;17.30;96732.00;;;;4989156;28;20353;-77
2023/06/12 03:42:44;;;;;;;7.43;6.73;;;;;17.60;96732.00;;;;4988817;28;20668;-75
2023/06/12 03:45:34;;;;;;;8.53;6.00;;;;;17.80;96733.00;;;;4982361;28;20269;-75
2023/06/12 03:48:24;;;;;;;10.70;6.40;;;;;18.00;96744.00;;;;4987616;28;20237;-75
2023/06/12 03:51:13;;;;;;;6.83;6.13;;;;;17.60;96731.00;;;;4989981;28;20199;-75
2023/06/12 03:54:03;;;;;;;10.00;6.63;;;;;17.60;96733.00;;;;4987373;28;20222;-76
2023/06/12 03:56:52;;;;;;;9.60;6.87;;;;;17.50;96740.00;;;;4982933;28;20206;-75
2023/06/12 03:59:41;;;;;;;8.63;6.50;;;;;17.20;96741.00;;;;4982288;28;20225;-75
2023/06/12 04:02:30;;;;;;;8.63;6.90;;;;;17.30;96730.00;;;;4989301;28;20202;-76
2023/06/12 04:05:21;;;;;;;10.30;7.17;;;;;17.80;96731.00;;;;4989682;28;20217;-75
2023/06/12 04:08:10;;;;;;;7.00;6.20;;;;;17.80;96734.00;;;;4990746;28;20230;-77
2023/06/12 04:11:02;;;;;;;8.20;6.23;;;;;17.60;96739.00;;;;4987301;28;20230;-77
2023/06/12 04:13:51;;;;;;;9.67;7.20;;;;;17.30;96734.00;;;;4979271;28;20231;-77
2023/06/12 04:16:40;;;;;;;7.50;6.80;;;;;17.60;96747.00;;;;4990782;28;20203;-76
2023/06/12 04:19:29;;;;;;;7.73;6.93;;;;;17.40;96735.00;;;;5003760;28;20234;-76
2023/06/12 04:22:20;;;;;;;6.93;6.33;;;;;17.60;96739.00;;;;5011079;28;20888;-76
2023/06/12 04:25:10;;;;;;;7.70;6.90;;;;;17.80;96739.00;;;;4998229;28;20206;-74
2023/06/12 04:27:59;;;;;;;9.30;6.50;;;;;17.60;96745.00;;;;5002649;28;20237;-74
2023/06/12 04:30:49;;;;;;;7.47;6.73;;;;;17.70;96735.00;;;;4997039;28;21011;-76
2023/06/12 04:33:38;;;;;;;8.70;7.30;;;;;17.90;96736.00;;;;5002468;28;20269;-76
2023/06/12 04:36:27;;;;;;;8.03;7.20;;;;;17.80;96739.00;;;;5001807;28;20202;-77
2023/06/12 04:39:19;;;;;;;9.83;7.30;;;;;18.00;96746.00;;;;4998852;28;20218;-76
2023/06/12 04:42:10;;;;;;;7.57;6.87;;;;;18.00;96739.00;;;;5016377;28;20229;-76
2023/06/12 04:45:00;;;;;;;7.17;6.47;;;;;18.00;96732.00;;;;5005504;28;20572;-76
2023/06/12 04:47:50;;;;;;;7.57;6.77;;;;;17.90;96731.00;;;;5002907;28;20271;-76
2023/06/12 04:50:39;;;;;;;8.30;7.13;;;;;18.10;96733.00;;;;5005216;28;20591;-76
2023/06/12 04:53:30;;;;;;;8.47;6.63;;;;;18.00;96728.00;;;;4998951;28;20253;-76
2023/06/12 04:56:21;;;;;;;7.37;6.67;;;;;18.10;96721.00;;;;5008101;28;20206;-76
2023/06/12 04:59:10;;;;;;;9.33;7.63;;;;;18.30;96728.00;;;;5003009;28;20726;-77
2023/06/12 05:01:59;;;;;;;8.17;7.27;;;;;18.50;96736.00;;;;5006423;28;20234;-76
2023/06/12 05:04:49;;;;;;;6.60;6.00;;;;;18.60;96734.00;;;;5012594;28;20205;-76
2023/06/12 05:07:38;;;;;;;7.87;7.07;;;;;18.70;96732.00;;;;5002603;28;20210;-76
2023/06/12 05:10:27;;;;;;;7.63;6.93;;;;;18.70;96730.00;;;;5005665;28;20301;-76
2023/06/12 05:13:17;;;;;;;8.30;7.50;;;;;18.90;96724.00;;;;5002277;28;20631;-76
2023/06/12 05:16:07;;;;;;;8.63;7.70;;;;;19.00;96721.00;;;;5012376;28;20218;-76
2023/06/12 05:18:56;;;;;;;10.13;7.47;;;;;18.80;96741.00;;;;5005831;28;20230;-77
2023/06/12 05:21:45;;;;;;;7.67;6.47;;;;;18.70;96733.00;;;;5002419;28;20612;-76
2023/06/12 05:24:34;;;;;;;7.90;6.87;;;;;18.90;96740.00;;;;5001620;28;20211;-77
2023/06/12 05:27:23;;;;;;;9.23;7.30;;;;;18.80;96727.00;;;;4998456;28;20323;-77
2023/06/12 05:30:15;;;;;;;8.17;7.37;;;;;19.10;96727.00;;;;5005469;28;20210;-77
2023/06/12 05:33:04;;;;;;;8.10;7.07;;;;;19.30;96726.00;;;;5000771;28;20206;-77
2023/06/12 05:35:53;;;;;;;11.93;7.03;;;;;19.20;96724.00;;;;5002182;28;20624;-76
2023/06/12 05:38:46;;;;;;;9.27;6.77;;;;;19.50;96731.00;;;;4993181;28;20671;-76
2023/06/12 05:41:35;;;;;;;9.67;6.30;;;;;19.50;96729.00;;;;4999041;28;20234;-77
2023/06/12 05:44:24;;;;;;;7.93;7.03;;;;;19.50;96725.00;;;;5006324;28;20209;-77
2023/06/12 05:47:15;;;;;;;9.73;7.27;;;;;19.70;96720.00;;;;5005844;28;20209;-76
2023/06/12 05:50:05;;;;;;;11.17;7.33;;;;;19.50;96724.00;;;;5004984;28;20588;-76
2023/06/12 05:52:54;;;;;;;10.67;7.33;;;;;19.80;96718.00;;;;5004178;28;20203;-76
2023/06/12 05:55:43;;;;;;;8.33;6.97;;;;;20.20;96724.00;;;;5003971;28;20202;-76
2023/06/12 05:58:32;;;;;;;9.70;7.17;;;;;20.40;96727.00;;;;5004498;28;20233;-77
2023/06/12 06:01:25;;;;;;;11.50;7.03;;;;;20.20;96727.00;;;;4990636;28;20226;-77
2023/06/12 06:04:16;;;;;;;7.63;5.80;;;;;20.70;96739.00;;;;5010529;28;20202;-76
2023/06/12 06:07:07;;;;;;;7.70;6.47;;;;;20.60;96733.00;;;;4992854;28;20560;-77
2023/06/12 06:10:01;;;;;;;8.17;6.37;;;;;20.70;96732.00;;;;4996937;28;20202;-76
2023/06/12 06:12:52;;;;;;;10.27;6.87;;;;;21.00;96723.00;;;;4991900;28;20252;-77
2023/06/12 06:15:41;;;;;;;8.27;6.67;;;;;21.20;96726.00;;;;5007152;28;20205;-76
2023/06/12 06:18:30;;;;;;;7.50;6.80;;;;;21.80;96720.00;;;;4999201;28;20256;-76
2023/06/12 06:21:21;;;;;;;9.47;6.40;;;;;22.30;96716.00;;;;4999619;28;20225;-76
2023/06/12 06:24:10;;;;;;;6.00;5.40;;;;;22.30;96715.00;;;;4998834;28;20201;-77
2023/06/12 06:27:00;;;;;;;8.97;6.47;;;;;22.40;96711.00;;;;5001840;28;20233;-76
2023/06/12 06:29:49;;;;;;;9.90;6.20;;;;;22.50;96715.00;;;;5005779;28;20206;-76
2023/06/12 06:32:38;;;;;;;13.57;6.87;;;;;21.80;96702.00;;;;4999551;28;20209;-77
2023/06/12 06:35:27;;;;;;;7.43;6.73;;;;;22.00;96705.00;;;;4998978;28;20256;-77
2023/06/12 06:38:21;;;;;;;7.97;5.77;;;;;22.70;96710.00;;;;4992638;28;20230;-76
2023/06/12 06:41:10;;;;;;;10.17;6.50;;;;;22.60;96709.00;;;;4993239;28;20264;-76
2023/06/12 06:43:59;;;;;;;7.83;5.97;;;;;22.60;96707.00;;;;5003114;28;20218;-75
2023/06/12 06:46:49;;;;;;;9.53;6.17;;;;;22.60;96708.00;;;;5002998;28;20203;-76
2023/06/12 06:49:38;;;;;;;8.90;5.57;;;;;22.70;96718.00;;;;5001997;28;20292;-76
2023/06/12 06:52:27;;;;;;;9.77;6.23;;;;;23.00;96719.00;;;;4999989;28;20195;-76
2023/06/12 06:55:18;;;;;;;8.57;6.37;;;;;23.20;96715.00;;;;5002713;28;20209;-76
2023/06/12 06:58:07;;;;;;;7.13;5.70;;;;;23.60;96704.00;;;;5006774;28;20217;-76
2023/06/12 07:00:56;;;;;;;6.00;5.30;;;;;23.80;96707.00;;;;4999218;28;20214;-77
2023/06/12 07:03:45;;;;;;;6.33;5.53;;;;;24.00;96710.00;;;;5002064;28;20623;-76
2023/06/12 07:06:34;;;;;;;4.77;4.30;;;;;24.20;96707.00;;;;5000272;28;20216;-76
2023/06/12 07:09:24;;;;;;;5.70;4.73;;;;;24.40;96712.00;;;;5000668;28;20826;-76
2023/06/12 07:12:15;;;;;;;5.40;3.90;;;;;24.60;96715.00;;;;5006273;28;20206;-76
2023/06/12 07:15:05;;;;;;;4.67;3.77;;;;;24.70;96711.00;;;;4994033;28;20210;-76
2023/06/12 07:17:54;;;;;;;6.73;4.03;;;;;24.80;96712.00;;;;4995615;28;20284;-76
2023/06/12 07:20:43;;;;;;;4.07;3.50;;;;;24.60;96715.00;;;;4999316;28;20723;-76
2023/06/12 07:23:32;;;;;;;3.87;3.50;;;;;24.50;96714.00;;;;4999394;28;20229;-76
2023/06/12 07:26:23;;;;;;;7.00;3.20;;;;;24.40;96715.00;;;;4999718;28;20586;-76
2023/06/12 07:29:17;;;;;;;5.33;3.63;;;;;24.40;96713.00;;;;5000583;28;20263;-77
2023/06/12 07:32:07;;;;;;;4.23;3.83;;;;;24.80;96710.00;;;;4999683;28;20202;-77
2023/06/12 07:34:56;;;;;;;3.67;3.37;;;;;25.20;96716.00;;;;5002907;28;20761;-77
2023/06/12 07:37:45;;;;;;;2.90;2.70;;;;;24.70;96703.00;;;;4999595;28;20214;-76
2023/06/12 07:40:34;;;;;;;3.63;3.33;;;;;25.70;96707.00;;;;5002349;28;20215;-77
2023/06/12 07:43:24;;;;;;;4.70;4.03;;;;;25.80;96707.00;;;;5004659;28;20477;-76
2023/06/12 07:46:15;;;;;;;6.87;4.00;;;;;25.90;96701.00;;;;5005885;28;20252;-78
2023/06/12 07:49:05;;;;;;;5.05;4.55;;;;;25.20;96700.00;;;;5007066;28;20233;-77
2023/06/12 07:51:54;;;;;;;5.40;4.30;;;;;25.30;96701.00;;;;5004696;28;20313;-75
2023/06/12 07:54:43;;;;;;;6.83;4.00;;;;;25.40;96698.00;;;;5004475;28;20202;-76
2023/06/12 07:57:32;;;;;;;6.37;4.40;;;;;25.80;96693.00;;;;5004021;28;20602;-76
2023/06/12 08:00:22;;;;;;;5.83;4.37;;;;;25.70;96696.00;;;;5004712;28;20198;-77
2023/06/12 08:03:15;;;;;;;3.30;3.10;;;;;25.70;96695.00;;;;5007140;28;20249;-76
2023/06/12 08:06:17;;;;;;;4.23;3.77;;;;;25.30;96689.00;;;;5003236;28;20240;-76
2023/06/12 08:09:08;;;;;;;3.83;3.40;;;;;25.70;96690.00;;;;5012529;28;20226;-75
2023/06/12 08:11:57;;;;;;;4.20;3.80;;;;;25.80;96693.00;;;;5003594;28;20214;-76
2023/06/12 08:14:48;;;;;;;5.13;4.17;;;;;23.30;96691.00;;;;5007928;28;20207;-76
2023/06/12 08:17:41;;;;;;;7.73;4.50;;;;;24.40;96700.00;;;;5004130;28;20263;-77
2023/06/12 08:20:32;;;;;;;6.57;4.47;;;;;24.60;96706.00;;;;5003599;28;20902;-76
2023/06/12 08:23:21;;;;;;;5.40;4.90;;;;;25.10;96700.00;;;;5006727;28;20248;-76
2023/06/12 08:26:10;;;;;;;6.37;4.53;;;;;25.60;96696.00;;;;5003433;28;20875;-77
2023/06/12 08:29:00;;;;;;;7.57;4.47;;;;;25.10;96688.00;;;;5008487;28;20630;-75
2023/06/12 08:31:49;;;;;;;5.70;5.10;;;;;25.50;96699.00;;;;5008506;28;20217;-77
2023/06/12 08:34:38;;;;;;;5.90;5.23;;;;;25.70;96691.00;;;;5003617;28;20536;-76
2023/06/12 08:37:29;;;;;;;10.43;5.87;;;;;25.10;96691.00;;;;5003476;28;20256;-76
2023/06/12 08:40:18;;;;;;;6.17;5.57;;;;;24.60;96692.00;;;;5006436;28;20209;-77
2023/06/12 08:43:07;;;;;;;6.13;5.53;;;;;24.80;96699.00;;;;5003588;28;20305;-76
2023/06/12 08:45:58;;;;;;;5.70;5.07;;;;;26.10;96689.00;;;;5001769;28;20210;-76
2023/06/12 08:48:49;;;;;;;5.60;4.70;;;;;26.60;96687.00;;;;5004316;28;20225;-78
2023/06/12 08:51:39;;;;;;;4.63;4.13;;;;;27.20;96686.00;;;;5009815;28;20210;-78
2023/06/12 08:54:30;;;;;;;5.70;4.77;;;;;27.80;96689.00;;;;5012218;28;20256;-77
2023/06/12 08:57:21;;;;;;;5.50;4.30;;;;;26.80;96692.00;;;;5006807;28;20257;-76
2023/06/12 09:00:12;;;;;;;6.30;4.13;;;;;25.90;96677.00;;;;5006173;28;20207;-76
2023/06/12 09:03:04;;;;;;;6.27;4.77;;;;;26.20;96688.00;;;;5004403;28;20234;-76
2023/06/12 09:05:56;;;;;;;5.13;4.63;;;;;27.20;96687.00;;;;5000185;28;20207;-71
2023/06/12 09:08:46;;;;;;;4.97;4.47;;;;;26.50;96681.00;;;;4998771;28;20708;-76
2023/06/12 09:11:37;;;;;;;6.03;4.50;;;;;26.60;96711.00;;;;4999748;28;20207;-77
2023/06/12 09:14:26;;;;;;;6.17;4.90;;;;;26.60;96694.00;;;;5004831;28;20198;-77
2023/06/12 09:17:16;;;;;;;8.57;4.53;;;;;27.60;96688.00;;;;5006561;28;20218;-77
2023/06/12 09:20:06;;;;;;;5.80;5.30;;;;;27.40;96677.00;;;;4996421;28;20208;-77
2023/06/12 09:22:55;;;;;;;5.30;4.80;;;;;28.00;96687.00;;;;4985506;28;20231;-76
2023/06/12 09:25:45;;;;;;;5.77;4.43;;;;;28.50;96683.00;;;;4985293;28;20225;-75
2023/06/12 09:28:45;;;;;;;7.43;4.43;;;;;27.40;96680.00;;;;4986656;28;20286;-77
2023/06/12 09:31:34;;;;;;;5.67;4.97;;;;;29.00;96673.00;;;;4993848;28;20211;-74
2023/06/12 09:34:25;;;;;;;5.63;4.10;;;;;29.00;96692.00;;;;4991237;28;20266;-75
2023/06/12 09:37:16;;;;;;;6.00;4.90;;;;;28.40;96694.00;;;;4991819;28;20256;-74
2023/06/12 09:40:13;;;;;;;5.33;4.77;;;;;26.60;96698.00;;;;4994894;28;20213;-76
2023/06/12 09:43:06;;;;;;;5.37;4.87;;;;;25.20;96684.00;;;;5002683;28;20290;-75
2023/06/12 09:45:57;;;;;;;5.20;4.70;;;;;25.20;96685.00;;;;4984935;28;20707;-76
2023/06/12 09:48:46;;;;;;;4.53;4.13;;;;;25.40;96687.00;;;;4990442;28;20220;-71
2023/06/12 09:51:36;;;;;;;5.20;4.70;;;;;25.20;96696.00;;;;4990110;28;20203;-75
2023/06/12 09:54:26;;;;;;;6.57;5.10;;;;;25.30;96692.00;;;;4997833;28;20215;-77
2023/06/12 09:57:16;;;;;;;5.73;4.67;;;;;26.20;96691.00;;;;4996754;28;20694;-77
2023/06/12 10:00:08;;;;;;;6.40;5.33;;;;;26.50;96643.00;;;;4995425;28;20206;-76
2023/06/12 10:03:03;;;;;;;5.60;5.10;;;;;27.60;96661.00;;;;4987269;28;20209;-75
2023/06/12 10:05:53;;;;;;;8.43;5.67;;;;;27.50;96690.00;;;;4985365;28;20206;-77
2023/06/12 10:08:43;;;;;;;5.37;4.87;;;;;26.30;96684.00;;;;4993240;28;20218;-77
2023/06/12 10:11:32;;;;;;;5.63;4.80;;;;;25.70;96690.00;;;;4992961;28;20319;-75
2023/06/12 10:14:26;;;;;;;6.03;4.63;;;;;26.40;96682.00;;;;4998509;28;20212;-76
2023/06/12 10:17:16;;;;;;;6.13;5.53;;;;;26.50;96642.00;;;;4989189;28;20579;-73
2023/06/12 10:20:10;;;;;;;4.77;4.37;;;;;27.40;96642.00;;;;4985923;28;20253;-74
2023/06/12 10:22:59;;;;;;;4.87;4.40;;;;;27.50;96690.00;;;;4983820;28;20229;-75
2023/06/12 10:25:49;;;;;;;5.20;4.70;;;;;26.40;96644.00;;;;4988355;28;20584;-76
2023/06/12 10:28:38;;;;;;;6.10;5.57;;;;;25.40;96683.00;;;;4994624;28;21288;-74
2023/06/12 10:31:30;;;;;;;4.70;4.03;;;;;26.90;96651.00;;;;5001602;28;20695;-76
2023/06/12 10:34:20;;;;;;;6.37;5.13;;;;;26.20;96665.00;;;;4996541;28;20245;-74
2023/06/12 10:37:24;;;;;;;5.73;4.77;;;;;25.90;96646.00;;;;4991247;28;20261;-76
2023/06/12 10:40:15;;;;;;;8.23;4.33;;;;;25.80;96703.00;;;;4989887;28;20203;-77
2023/06/12 10:43:06;;;;;;;5.70;4.90;;;;;25.90;96698.00;;;;4987281;28;20209;-76
2023/06/12 10:45:58;;;;;;;6.20;4.63;;;;;25.00;96695.00;;;;4988091;28;20756;-77
2023/06/12 10:48:48;;;;;;;4.80;4.40;;;;;24.40;96676.00;;;;4987703;28;20227;-74
2023/06/12 10:51:40;;;;;;;5.27;4.70;;;;;27.10;96638.00;;;;4989112;28;20199;-75
2023/06/12 10:54:30;;;;;;;6.80;5.10;;;;;28.30;96637.00;;;;4990086;28;20581;-74
2023/06/12 10:57:29;;;;;;;5.63;5.00;;;;;27.60;96686.00;;;;4991039;28;20203;-74
2023/06/12 11:00:19;;;;;;;5.10;4.53;;;;;26.40;96686.00;;;;4987532;28;20206;-76
2023/06/12 11:03:10;;;;;;;6.03;5.37;;;;;26.50;96674.00;;;;4988068;28;20207;-77
2023/06/12 11:06:13;;;;;;;6.00;5.40;;;;;26.40;96677.00;;;;4987941;28;20210;-76
2023/06/12 11:09:10;;;;;;;6.10;4.93;;;;;26.60;96648.00;;;;4988320;28;20222;-75
2023/06/12 11:12:02;;;;;;;4.53;4.13;;;;;27.20;96662.00;;;;4987809;28;20211;-75
2023/06/12 11:14:52;;;;;;;6.63;4.20;;;;;27.50;96628.00;;;;4993946;28;20211;-75
2023/06/12 11:17:41;;;;;;;4.73;4.33;;;;;26.80;96668.00;;;;4993200;28;20613;-77
2023/06/12 11:20:32;;;;;;;4.90;4.40;;;;;27.20;96640.00;;;;4982928;28;20285;-75
2023/06/12 11:23:26;;;;;;;5.47;4.97;;;;;28.90;96592.00;;;;4989003;28;20330;-75
2023/06/12 11:26:18;;;;;;;4.80;4.10;;;;;30.10;96609.00;;;;4990333;28;20258;-76
2023/06/12 11:29:16;;;;;;;5.70;4.40;;;;;29.70;96639.00;;;;4991292;28;20202;-74
2023/06/12 11:32:09;;;;;;;7.50;4.27;;;;;29.60;96610.00;;;;4985702;28;20567;-78
2023/06/12 11:34:59;;;;;;;4.13;3.73;;;;;29.20;96658.00;;;;4989521;28;20235;-74
2023/06/12 11:37:48;;;;;;;6.37;4.07;;;;;28.70;96644.00;;;;4988095;28;20221;-72
2023/06/12 11:40:41;;;;;;;4.23;3.90;;;;;28.10;96655.00;;;;4985643;28;20213;-71
2023/06/12 11:43:31;;;;;;;8.57;5.20;;;;;27.30;96644.00;;;;4984063;28;20572;-76
2023/06/12 11:46:22;;;;;;;4.30;3.90;;;;;27.90;96592.00;;;;4988705;28;20214;-72
2023/06/12 11:49:14;;;;;;;4.50;3.90;;;;;29.60;96572.00;;;;4988750;28;20225;-73
2023/06/12 11:52:04;;;;;;;5.53;5.03;;;;;28.30;96631.00;;;;4986727;28;20205;-73
2023/06/12 11:54:58;;;;;;;5.43;4.47;;;;;29.80;96635.00;;;;4990165;28;20262;-70
2023/06/12 11:57:52;;;;;;;5.93;4.53;;;;;28.40;96649.00;;;;4997716;28;20228;-71
2023/06/12 12:00:41;;;;;;;6.97;4.87;;;;;26.70;96653.00;;;;4990028;28;20576;-75
2023/06/12 12:03:35;;;;;;;5.30;4.73;;;;;26.00;96635.00;;;;4994614;28;20210;-74
2023/06/12 12:06:25;;;;;;;5.17;4.67;;;;;26.90;96642.00;;;;4995373;28;20210;-76
2023/06/12 12:09:15;;;;;;;4.47;4.07;;;;;26.30;96630.00;;;;4991239;28;20272;-74
2023/06/12 12:12:12;;;;;;;5.00;4.47;;;;;27.20;96633.00;;;;4997594;28;20211;-74
2023/06/12 12:15:03;;;;;;;5.50;4.57;;;;;27.30;96641.00;;;;4987130;28;20745;-74
2023/06/12 12:17:53;;;;;;;4.67;4.17;;;;;27.20;96629.00;;;;4995780;28;20232;-75
2023/06/12 12:20:44;;;;;;;5.30;4.80;;;;;27.30;96595.00;;;;5003292;28;20263;-74
2023/06/12 12:23:33;;;;;;;6.37;4.50;;;;;27.70;96636.00;;;;4998758;28;20255;-74
2023/06/12 12:26:25;;;;;;;6.13;4.77;;;;;27.70;96607.00;;;;5001414;28;20208;-72
2023/06/12 12:29:15;;;;;;;4.57;4.17;;;;;28.20;96614.00;;;;5003277;28;20614;-74
2023/06/12 12:32:04;;;;;;;5.07;4.57;;;;;27.70;96634.00;;;;4996161;28;20333;-74
2023/06/12 12:34:53;;;;;;;5.50;4.50;;;;;26.70;96625.00;;;;4996128;28;20207;-75
2023/06/12 12:37:44;;;;;;;7.03;4.53;;;;;27.10;96623.00;;;;4995448;28;20858;-74
2023/06/12 12:40:34;;;;;;;6.17;4.47;;;;;28.40;96545.00;;;;4996034;28;20220;-76
2023/06/12 12:43:23;;;;;;;6.77;4.93;;;;;30.70;96549.00;;;;5005668;28;20216;-76
2023/06/12 12:46:12;;;;;;;6.30;4.90;;;;;31.30;96567.00;;;;5005229;28;20225;-75
2023/06/12 12:49:02;;;;;;;4.20;3.80;;;;;29.90;96629.00;;;;5010276;28;20230;-77
2023/06/12 12:51:51;;;;;;;4.23;3.87;;;;;28.80;96551.00;;;;5006811;28;20291;-75
2023/06/12 12:54:42;;;;;;;5.60;4.23;;;;;30.50;96552.00;;;;5009444;28;20238;-75
2023/06/12 12:57:34;;;;;;;4.67;4.20;;;;;30.00;96609.00;;;;5008165;28;20209;-76
2023/06/12 13:00:23;;;;;;;4.10;3.70;;;;;29.30;96604.00;;;;5007519;28;20252;-76
2023/06/12 13:03:13;;;;;;;4.77;4.37;;;;;28.60;96541.00;;;;5002818;28;20751;-74
2023/06/12 13:06:02;;;;;;;4.27;3.83;;;;;28.10;96536.00;;;;5003563;28;20304;-77
2023/06/12 13:08:51;;;;;;;4.77;3.87;;;;;30.30;96570.00;;;;5006477;28;20233;-78
2023/06/12 13:11:42;;;;;;;4.67;3.70;;;;;30.60;96616.00;;;;5006552;28;20225;-77
2023/06/12 13:14:32;;;;;;;6.53;4.23;;;;;30.00;96617.00;;;;5008826;28;20205;-79
2023/06/12 13:17:21;;;;;;;4.85;3.38;;;;;29.70;96626.00;;;;4998872;28;20655;-76
2023/06/12 13:20:11;;;;;;;5.17;4.03;;;;;28.80;96625.00;;;;5003202;28;20272;-76
2023/06/12 13:23:00;;;;;;;4.20;3.80;;;;;28.10;96619.00;;;;4999158;28;20643;-76
2023/06/12 13:25:49;;;;;;;4.67;4.27;;;;;28.30;96610.00;;;;4997319;28;20594;-74
2023/06/12 13:28:40;;;;;;;4.33;3.93;;;;;27.80;96609.00;;;;5001058;28;20287;-75
2023/06/12 13:31:29;;;;;;;4.00;3.60;;;;;28.50;96539.00;;;;4999122;28;20685;-75
2023/06/12 13:34:18;;;;;;;7.00;4.53;;;;;29.40;96612.00;;;;5007743;28;20714;-77
2023/06/12 13:37:08;;;;;;;6.20;3.90;;;;;28.60;96546.00;;;;4998657;28;20242;-77
2023/06/12 13:39:57;;;;;;;4.63;4.23;;;;;27.80;96586.00;;;;5004725;28;20227;-77
2023/06/12 13:42:47;;;;;;;5.30;3.00;;;;;27.80;96586.00;;;;5002618;28;20204;-77
2023/06/12 13:45:38;;;;;;;6.13;4.23;;;;;28.20;96521.00;;;;5001318;28;20228;-74
2023/06/12 13:48:27;;;;;;;4.57;4.13;;;;;29.80;96538.00;;;;5004169;28;20228;-74
2023/06/12 13:51:16;;;;;;;4.57;4.17;;;;;29.40;96530.00;;;;5005475;28;20210;-77
2023/06/12 13:54:06;;;;;;;4.77;3.60;;;;;30.10;96578.00;;;;5002427;28;20210;-78
2023/06/12 13:56:55;;;;;;;4.90;3.77;;;;;29.20;96520.00;;;;5006107;28;20227;-74
2023/06/12 13:59:45;;;;;;;4.63;3.83;;;;;31.20;96549.00;;;;5001091;28;20223;-78
2023/06/12 14:02:35;;;;;;;4.20;3.73;;;;;32.10;96526.00;;;;5008085;28;20206;-79
2023/06/12 14:05:24;;;;;;;4.47;3.65;;;28.30;84.10;32.50;96560.00;;;;5006518;28;20229;-79
2023/06/12 14:08:13;;;;;;;3.53;3.20;;;28.30;84.50;31.00;96594.00;;;;5001392;28;20233;-78
2023/06/12 14:11:02;;;;;;;3.78;3.17;;;28.70;79.60;28.70;96583.00;;;;5003958;28;20209;-74